Terminal Aerodrome Forecast
Issued by NWS Shreveport, LA

Home | Current Version | Previous Version | Text Only | Print | Product List | Glossary On
Versions: 1 2 3 4 5 6 7 8 9 10 11 12 13 14 15 16 17 18 19 20 21 22
057
FTUS44 KSHV 271151
TAFLFK
TAF
KLFK 271151Z 2712/2812 17008KT P6SM BKN013 OVC020
      TEMPO 2712/2713 5SM BR OVC010
     FM271600 19007KT P6SM VCSH BKN025 OVC035
     FM272100 21008KT P6SM BKN035
     FM280000 17004KT P6SM SCT030 BKN040
     FM280600 VRB03KT 6SM BR BKN010 OVC020=

USA.gov is the U.S. government's official web portal to all federal, state and local government web resources and services.